createdAt,value
2018-08-30T00:04:24.848Z,18.4
2018-08-30T00:19:42.837Z,18.2
2018-08-30T00:34:49.659Z,18.1
2018-08-30T00:50:17.937Z,18
2018-08-30T01:05:35.636Z,18
2018-08-30T01:20:53.404Z,17.9
2018-08-30T01:36:10.995Z,18
2018-08-30T01:51:24.820Z,18
2018-08-30T02:06:46.368Z,18.1
2018-08-30T02:22:04.208Z,18.1
2018-08-30T02:37:21.392Z,18.1
2018-08-30T02:52:28.292Z,18.1
2018-08-30T03:07:58.419Z,18
2018-08-30T03:23:15.125Z,18
2018-08-30T03:38:32.406Z,18.2
2018-08-30T03:53:50.203Z,18.3
2018-08-30T04:09:03.931Z,18.3
2018-08-30T04:24:25.505Z,18.5
2018-08-30T04:39:43.346Z,18.6
2018-08-30T04:55:01.387Z,18.7
2018-08-30T05:10:07.774Z,19
2018-08-30T05:25:37.295Z,19.4
2018-08-30T05:40:55.609Z,19.6
2018-08-30T05:56:14.057Z,19.7
2018-08-30T06:11:32.199Z,19.7
2018-08-30T06:26:44.980Z,19.8
2018-08-30T06:42:09.137Z,20
2018-08-30T06:57:27.873Z,20.1
2018-08-30T07:12:46.337Z,20
2018-08-30T07:27:50.677Z,20
2018-08-30T07:43:23.089Z,20.1
2018-08-30T07:58:41.816Z,20.5
2018-08-30T08:14:00.527Z,20.5
2018-08-30T08:29:19.644Z,20.1
2018-08-30T08:44:29.542Z,19.3
2018-08-30T08:59:55.066Z,18.7
2018-08-30T09:15:13.027Z,18.4
2018-08-30T09:30:31.464Z,18.2
2018-08-30T09:45:48.689Z,18.2
2018-08-30T10:01:04.301Z,18.1
2018-08-30T10:16:23.368Z,17.7
2018-08-30T10:31:41.019Z,17.7
2018-08-30T10:46:58.699Z,17.8
2018-08-30T11:02:06.671Z,18
2018-08-30T11:17:33.621Z,18.1
2018-08-30T11:32:51.198Z,18.3
2018-08-30T11:48:09.341Z,18.4
2018-08-30T12:03:26.853Z,18.3
2018-08-30T12:18:40.883Z,18.1
2018-08-30T12:34:02.046Z,17.8
2018-08-30T12:49:19.759Z,17.5
2018-08-30T13:04:37.236Z,17.8
2018-08-30T13:19:43.578Z,18.1
2018-08-30T13:35:12.888Z,17.9
2018-08-30T13:50:30.052Z,17.7
2018-08-30T14:05:47.362Z,17.7
2018-08-30T14:21:05.008Z,17.8
2018-08-30T14:36:15.674Z,17.5
2018-08-30T14:51:38.889Z,17.2
2018-08-30T15:06:56.027Z,17.2
2018-08-30T15:22:13.685Z,17.3
2018-08-30T15:37:16.695Z,17.4
2018-08-30T15:52:47.625Z,17.5
2018-08-30T16:08:05.790Z,17.5
2018-08-30T16:23:23.158Z,17.7
2018-08-30T16:38:40.509Z,18.4
2018-08-30T16:53:49.378Z,18.6
2018-08-30T17:09:16.698Z,18.9
2018-08-30T17:24:34.745Z,18.8
2018-08-30T17:39:52.440Z,18.6
2018-08-30T17:55:10.001Z,18.4
2018-08-30T18:10:22.680Z,18.3
2018-08-30T18:25:45.248Z,18.3
2018-08-30T18:41:03.133Z,18.1
2018-08-30T18:56:21.824Z,17.9
2018-08-30T19:11:25.338Z,17.8
2018-08-30T19:26:55.650Z,17.7
2018-08-30T19:42:13.092Z,17.4
2018-08-30T19:57:30.692Z,17.1
2018-08-30T20:12:47.079Z,16.9
2018-08-30T20:27:56.059Z,16.7
2018-08-30T20:43:21.836Z,16.6
2018-08-30T20:58:38.464Z,16.4
2018-08-30T21:13:55.440Z,16.2
2018-08-30T21:29:11.759Z,16.1
2018-08-30T21:44:25.995Z,16.1
2018-08-30T21:59:45.579Z,16
2018-08-30T22:15:01.835Z,15.9
2018-08-30T22:30:19.092Z,15.9
2018-08-30T22:45:25.045Z,15.9
2018-08-30T23:00:51.882Z,15.8
2018-08-30T23:16:09.715Z,15.6
2018-08-30T23:31:25.305Z,15.5
2018-08-30T23:46:41.730Z,15.5
